sensor_id;sensor_type;location;lat;lon;timestamp;pressure;altitude;pressure_sealevel;temperature;humidity
17311;BME280;8773;43.300;0.394;2022-12-18T00:02:00;100255.41;;;5.67;73.17
17311;BME280;8773;43.300;0.394;2022-12-18T00:04:29;100259.25;;;5.63;72.83
17311;BME280;8773;43.300;0.394;2022-12-18T00:06:57;100249.94;;;5.47;71.69
17311;BME280;8773;43.300;0.394;2022-12-18T00:09:25;100252.59;;;5.23;73.29
17311;BME280;8773;43.300;0.394;2022-12-18T00:12:06;100257.97;;;5.10;73.95
17311;BME280;8773;43.300;0.394;2022-12-18T00:14:41;100249.56;;;4.92;73.95
17311;BME280;8773;43.300;0.394;2022-12-18T00:17:10;100248.56;;;5.06;73.58
17311;BME280;8773;43.300;0.394;2022-12-18T00:19:39;100249.47;;;5.18;73.84
17311;BME280;8773;43.300;0.394;2022-12-18T00:22:07;100239.22;;;5.13;73.72
17311;BME280;8773;43.300;0.394;2022-12-18T00:24:35;100242.31;;;5.42;73.02
17311;BME280;8773;43.300;0.394;2022-12-18T00:27:03;100244.13;;;5.06;74.45
17311;BME280;8773;43.300;0.394;2022-12-18T00:29:31;100234.94;;;5.34;74.14
17311;BME280;8773;43.300;0.394;2022-12-18T00:31:59;100220.44;;;5.51;72.75
17311;BME280;8773;43.300;0.394;2022-12-18T00:34:28;100234.19;;;5.67;73.29
17311;BME280;8773;43.300;0.394;2022-12-18T00:36:56;100234.72;;;5.72;72.05
17311;BME280;8773;43.300;0.394;2022-12-18T00:39:24;100221.66;;;5.58;72.58
17311;BME280;8773;43.300;0.394;2022-12-18T00:41:53;100237.53;;;5.47;72.45
17311;BME280;8773;43.300;0.394;2022-12-18T00:44:39;100251.25;;;5.41;72.23
17311;BME280;8773;43.300;0.394;2022-12-18T00:47:07;100252.34;;;5.15;73.23
17311;BME280;8773;43.300;0.394;2022-12-18T00:49:36;100248.97;;;5.13;73.52
17311;BME280;8773;43.300;0.394;2022-12-18T00:52:04;100239.09;;;5.15;72.70
17311;BME280;8773;43.300;0.394;2022-12-18T00:54:32;100241.25;;;5.10;73.24
17311;BME280;8773;43.300;0.394;2022-12-18T00:57:00;100249.47;;;5.18;73.09
17311;BME280;8773;43.300;0.394;2022-12-18T00:59:29;100243.56;;;5.25;72.84
17311;BME280;8773;43.300;0.394;2022-12-18T01:01:57;100237.69;;;4.98;73.53
17311;BME280;8773;43.300;0.394;2022-12-18T01:04:26;100249.19;;;5.10;73.95
17311;BME280;8773;43.300;0.394;2022-12-18T01:06:55;100249.69;;;5.15;73.44
17311;BME280;8773;43.300;0.394;2022-12-18T01:09:23;100249.28;;;5.32;72.56
17311;BME280;8773;43.300;0.394;2022-12-18T01:11:51;100239.28;;;5.35;71.72
17311;BME280;8773;43.300;0.394;2022-12-18T01:14:20;100251.31;;;5.28;72.20
17311;BME280;8773;43.300;0.394;2022-12-18T01:16:48;100258.84;;;5.22;71.49
17311;BME280;8773;43.300;0.394;2022-12-18T01:19:16;100267.94;;;5.30;71.39
17311;BME280;8773;43.300;0.394;2022-12-18T01:21:44;100267.16;;;4.93;72.46
17311;BME280;8773;43.300;0.394;2022-12-18T01:24:14;100273.75;;;4.88;73.28
17311;BME280;8773;43.300;0.394;2022-12-18T01:26:42;100271.75;;;5.15;72.80
17311;BME280;8773;43.300;0.394;2022-12-18T01:29:10;100270.69;;;5.29;71.70
17311;BME280;8773;43.300;0.394;2022-12-18T01:31:39;100275.56;;;5.35;72.20
17311;BME280;8773;43.300;0.394;2022-12-18T01:34:07;100261.97;;;5.39;71.24
17311;BME280;8773;43.300;0.394;2022-12-18T01:36:37;100267.25;;;5.39;71.14
17311;BME280;8773;43.300;0.394;2022-12-18T01:39:07;100276.78;;;4.94;72.09
17311;BME280;8773;43.300;0.394;2022-12-18T01:41:37;100284.06;;;5.03;72.90
17311;BME280;8773;43.300;0.394;2022-12-18T01:44:58;100273.81;;;4.99;72.63
17311;BME280;8773;43.300;0.394;2022-12-18T01:47:33;100262.50;;;4.84;72.39
17311;BME280;8773;43.300;0.394;2022-12-18T01:50:06;100271.06;;;4.64;72.24
17311;BME280;8773;43.300;0.394;2022-12-18T01:52:35;100271.59;;;4.69;72.96
17311;BME280;8773;43.300;0.394;2022-12-18T01:55:10;100273.72;;;4.51;73.45
17311;BME280;8773;43.300;0.394;2022-12-18T01:57:40;100278.69;;;4.56;73.68
17311;BME280;8773;43.300;0.394;2022-12-18T02:00:12;100276.69;;;4.47;73.68
17311;BME280;8773;43.300;0.394;2022-12-18T02:02:41;100279.00;;;4.64;74.10
17311;BME280;8773;43.300;0.394;2022-12-18T02:05:11;100266.25;;;4.32;74.42
17311;BME280;8773;43.300;0.394;2022-12-18T02:07:48;100265.19;;;4.10;75.76
17311;BME280;8773;43.300;0.394;2022-12-18T02:10:23;100260.22;;;4.05;76.15
17311;BME280;8773;43.300;0.394;2022-12-18T02:13:01;100260.41;;;4.40;75.25
17311;BME280;8773;43.300;0.394;2022-12-18T02:15:38;100263.56;;;4.45;74.69
17311;BME280;8773;43.300;0.394;2022-12-18T02:18:11;100253.19;;;4.42;75.45
17311;BME280;8773;43.300;0.394;2022-12-18T02:20:44;100251.03;;;4.72;74.52
17311;BME280;8773;43.300;0.394;2022-12-18T02:23:24;100253.22;;;4.79;74.07
17311;BME280;8773;43.300;0.394;2022-12-18T02:26:06;100252.84;;;4.59;73.34
17311;BME280;8773;43.300;0.394;2022-12-18T02:28:41;100257.22;;;4.48;73.98
17311;BME280;8773;43.300;0.394;2022-12-18T02:31:14;100265.38;;;4.45;74.42
17311;BME280;8773;43.300;0.394;2022-12-18T02:33:44;100268.06;;;4.32;74.25
17311;BME280;8773;43.300;0.394;2022-12-18T02:36:15;100259.00;;;4.47;73.88
17311;BME280;8773;43.300;0.394;2022-12-18T02:38:45;100269.19;;;4.40;73.60
17311;BME280;8773;43.300;0.394;2022-12-18T02:41:16;100259.22;;;4.57;73.36
17311;BME280;8773;43.300;0.394;2022-12-18T02:43:49;100252.63;;;4.62;73.18
17311;BME280;8773;43.300;0.394;2022-12-18T02:46:28;100264.94;;;4.87;72.25
17311;BME280;8773;43.300;0.394;2022-12-18T02:49:04;100256.56;;;4.93;72.04
17311;BME280;8773;43.300;0.394;2022-12-18T02:51:39;100243.31;;;4.93;71.37
17311;BME280;8773;43.300;0.394;2022-12-18T02:54:19;100252.66;;;4.50;72.62
17311;BME280;8773;43.300;0.394;2022-12-18T02:56:53;100237.94;;;4.46;72.63
17311;BME280;8773;43.300;0.394;2022-12-18T02:59:26;100247.88;;;4.55;72.10
17311;BME280;8773;43.300;0.394;2022-12-18T03:02:00;100255.47;;;4.72;71.93
17311;BME280;8773;43.300;0.394;2022-12-18T03:04:39;100258.88;;;4.74;71.72
17311;BME280;8773;43.300;0.394;2022-12-18T03:07:15;100258.91;;;4.36;72.28
17311;BME280;8773;43.300;0.394;2022-12-18T03:09:49;100262.13;;;4.28;73.09
17311;BME280;8773;43.300;0.394;2022-12-18T03:12:22;100261.69;;;4.34;73.55
17311;BME280;8773;43.300;0.394;2022-12-18T03:14:59;100252.63;;;4.62;72.41
17311;BME280;8773;43.300;0.394;2022-12-18T03:17:31;100235.88;;;4.74;71.92
17311;BME280;8773;43.300;0.394;2022-12-18T03:20:03;100239.84;;;4.80;71.73
17311;BME280;8773;43.300;0.394;2022-12-18T03:22:35;100229.38;;;4.79;71.41
17311;BME280;8773;43.300;0.394;2022-12-18T03:25:07;100222.50;;;4.39;72.52
17311;BME280;8773;43.300;0.394;2022-12-18T03:27:44;100219.34;;;4.34;72.74
17311;BME280;8773;43.300;0.394;2022-12-18T03:30:15;100222.28;;;4.43;73.12
17311;BME280;8773;43.300;0.394;2022-12-18T03:32:47;100219.09;;;4.50;72.39
17311;BME280;8773;43.300;0.394;2022-12-18T03:35:21;100215.69;;;4.61;71.59
17311;BME280;8773;43.300;0.394;2022-12-18T03:37:50;100220.84;;;4.75;70.88
17311;BME280;8773;43.300;0.394;2022-12-18T03:40:23;100224.91;;;4.79;71.18
17311;BME280;8773;43.300;0.394;2022-12-18T03:43:00;100233.56;;;4.70;71.11
17311;BME280;8773;43.300;0.394;2022-12-18T03:45:32;100238.34;;;4.65;71.54
17311;BME280;8773;43.300;0.394;2022-12-18T03:48:05;100235.25;;;4.71;71.23
17311;BME280;8773;43.300;0.394;2022-12-18T03:50:39;100241.44;;;4.83;71.13
17311;BME280;8773;43.300;0.394;2022-12-18T03:53:19;100239.41;;;4.86;70.55
17311;BME280;8773;43.300;0.394;2022-12-18T03:55:51;100242.19;;;4.85;70.30
17311;BME280;8773;43.300;0.394;2022-12-18T03:58:23;100234.91;;;4.76;70.77
17311;BME280;8773;43.300;0.394;2022-12-18T04:00:54;100230.69;;;4.73;70.61
17311;BME280;8773;43.300;0.394;2022-12-18T04:03:24;100231.91;;;4.80;70.47
17311;BME280;8773;43.300;0.394;2022-12-18T04:05:54;100227.75;;;4.65;70.66
17311;BME280;8773;43.300;0.394;2022-12-18T04:08:24;100228.59;;;4.65;70.94
17311;BME280;8773;43.300;0.394;2022-12-18T04:10:53;100229.34;;;4.55;71.41
17311;BME280;8773;43.300;0.394;2022-12-18T04:13:29;100227.66;;;4.54;71.02
17311;BME280;8773;43.300;0.394;2022-12-18T04:15:57;100224.06;;;4.55;71.06
17311;BME280;8773;43.300;0.394;2022-12-18T04:18:26;100226.50;;;4.58;71.08
17311;BME280;8773;43.300;0.394;2022-12-18T04:20:54;100233.72;;;4.43;71.19
17311;BME280;8773;43.300;0.394;2022-12-18T04:23:22;100239.28;;;4.27;71.79
17311;BME280;8773;43.300;0.394;2022-12-18T04:25:50;100248.22;;;4.37;71.80
17311;BME280;8773;43.300;0.394;2022-12-18T04:28:18;100249.00;;;4.27;71.75
17311;BME280;8773;43.300;0.394;2022-12-18T04:30:48;100265.47;;;4.43;71.33
17311;BME280;8773;43.300;0.394;2022-12-18T04:33:16;100277.06;;;4.29;71.81
17311;BME280;8773;43.300;0.394;2022-12-18T04:35:45;100283.91;;;4.45;71.69
17311;BME280;8773;43.300;0.394;2022-12-18T04:38:13;100267.59;;;4.51;71.17
17311;BME280;8773;43.300;0.394;2022-12-18T04:40:41;100276.69;;;4.34;71.60
17311;BME280;8773;43.300;0.394;2022-12-18T04:43:10;100296.81;;;4.49;71.62
17311;BME280;8773;43.300;0.394;2022-12-18T04:45:38;100309.31;;;4.60;71.40
17311;BME280;8773;43.300;0.394;2022-12-18T04:48:08;100299.19;;;4.78;70.22
17311;BME280;8773;43.300;0.394;2022-12-18T04:50:36;100298.97;;;4.81;70.01
17311;BME280;8773;43.300;0.394;2022-12-18T04:53:04;100302.28;;;4.71;69.63
17311;BME280;8773;43.300;0.394;2022-12-18T04:55:32;100307.81;;;4.68;69.95
17311;BME280;8773;43.300;0.394;2022-12-18T04:58:00;100307.41;;;4.49;70.57
17311;BME280;8773;43.300;0.394;2022-12-18T05:00:29;100305.19;;;4.56;70.67
17311;BME280;8773;43.300;0.394;2022-12-18T05:02:57;100313.31;;;4.65;69.81
17311;BME280;8773;43.300;0.394;2022-12-18T05:05:27;100296.59;;;4.65;69.69
17311;BME280;8773;43.300;0.394;2022-12-18T05:07:55;100301.03;;;4.52;70.51
17311;BME280;8773;43.300;0.394;2022-12-18T05:10:23;100310.38;;;4.45;70.68
17311;BME280;8773;43.300;0.394;2022-12-18T05:12:51;100308.03;;;4.53;70.82
17311;BME280;8773;43.300;0.394;2022-12-18T05:15:29;100289.19;;;4.57;70.15
17311;BME280;8773;43.300;0.394;2022-12-18T05:17:57;100296.81;;;4.62;69.89
17311;BME280;8773;43.300;0.394;2022-12-18T05:20:28;100304.63;;;4.63;69.48
17311;BME280;8773;43.300;0.394;2022-12-18T05:22:56;100297.97;;;4.58;70.07
17311;BME280;8773;43.300;0.394;2022-12-18T05:25:25;100293.94;;;4.52;70.12
17311;BME280;8773;43.300;0.394;2022-12-18T05:27:53;100301.03;;;4.52;70.56
17311;BME280;8773;43.300;0.394;2022-12-18T05:30:21;100278.59;;;4.45;69.78
17311;BME280;8773;43.300;0.394;2022-12-18T05:32:49;100290.78;;;4.47;70.48
17311;BME280;8773;43.300;0.394;2022-12-18T05:35:17;100277.13;;;4.40;70.15
17311;BME280;8773;43.300;0.394;2022-12-18T05:37:46;100293.13;;;4.39;71.07
17311;BME280;8773;43.300;0.394;2022-12-18T05:40:15;100291.00;;;4.44;70.64
17311;BME280;8773;43.300;0.394;2022-12-18T05:42:43;100296.59;;;4.39;71.22
17311;BME280;8773;43.300;0.394;2022-12-18T05:45:11;100290.56;;;4.37;71.40
17311;BME280;8773;43.300;0.394;2022-12-18T05:47:39;100281.69;;;4.38;71.44
17311;BME280;8773;43.300;0.394;2022-12-18T05:50:07;100287.00;;;4.26;71.58
17311;BME280;8773;43.300;0.394;2022-12-18T05:52:35;100288.13;;;4.34;71.15
17311;BME280;8773;43.300;0.394;2022-12-18T05:55:05;100276.31;;;4.27;71.59
17311;BME280;8773;43.300;0.394;2022-12-18T05:57:33;100286.88;;;4.40;71.40
17311;BME280;8773;43.300;0.394;2022-12-18T06:00:03;100285.59;;;4.46;71.28
17311;BME280;8773;43.300;0.394;2022-12-18T06:02:31;100292.16;;;4.53;71.01
17311;BME280;8773;43.300;0.394;2022-12-18T06:04:59;100289.63;;;4.51;70.92
17311;BME280;8773;43.300;0.394;2022-12-18T06:07:27;100287.59;;;4.55;70.58
17311;BME280;8773;43.300;0.394;2022-12-18T06:09:55;100285.59;;;4.58;71.04
17311;BME280;8773;43.300;0.394;2022-12-18T06:12:25;100284.53;;;4.61;71.01
17311;BME280;8773;43.300;0.394;2022-12-18T06:14:53;100290.44;;;4.64;70.76
17311;BME280;8773;43.300;0.394;2022-12-18T06:17:27;100288.22;;;4.58;70.40
17311;BME280;8773;43.300;0.394;2022-12-18T06:19:55;100291.72;;;4.59;70.16
17311;BME280;8773;43.300;0.394;2022-12-18T06:22:24;100286.44;;;4.59;70.08
17311;BME280;8773;43.300;0.394;2022-12-18T06:24:52;100299.66;;;4.71;69.95
17311;BME280;8773;43.300;0.394;2022-12-18T06:27:20;100297.00;;;4.71;69.45
17311;BME280;8773;43.300;0.394;2022-12-18T06:29:50;100278.50;;;4.59;69.42
17311;BME280;8773;43.300;0.394;2022-12-18T06:32:18;100293.50;;;4.71;69.48
17311;BME280;8773;43.300;0.394;2022-12-18T06:34:46;100281.22;;;4.70;69.66
17311;BME280;8773;43.300;0.394;2022-12-18T06:37:14;100270.31;;;4.62;69.47
17311;BME280;8773;43.300;0.394;2022-12-18T06:39:42;100277.53;;;4.47;70.43
17311;BME280;8773;43.300;0.394;2022-12-18T06:42:10;100271.63;;;4.44;70.22
17311;BME280;8773;43.300;0.394;2022-12-18T06:44:38;100272.25;;;4.60;69.84
17311;BME280;8773;43.300;0.394;2022-12-18T06:47:08;100258.69;;;4.52;69.73
17311;BME280;8773;43.300;0.394;2022-12-18T06:49:36;100264.63;;;4.55;69.82
17311;BME280;8773;43.300;0.394;2022-12-18T06:52:04;100270.34;;;4.36;70.35
17311;BME280;8773;43.300;0.394;2022-12-18T06:54:32;100253.66;;;4.23;70.83
17311;BME280;8773;43.300;0.394;2022-12-18T06:57:00;100270.56;;;4.33;70.26
17311;BME280;8773;43.300;0.394;2022-12-18T06:59:31;100274.31;;;4.18;70.65
17311;BME280;8773;43.300;0.394;2022-12-18T07:01:59;100273.34;;;4.19;70.79
17311;BME280;8773;43.300;0.394;2022-12-18T07:04:29;100279.59;;;4.31;70.53
17311;BME280;8773;43.300;0.394;2022-12-18T07:06:58;100275.56;;;4.25;70.52
17311;BME280;8773;43.300;0.394;2022-12-18T07:09:26;100275.56;;;4.13;71.02
17311;BME280;8773;43.300;0.394;2022-12-18T07:11:57;100274.94;;;4.09;71.00
17311;BME280;8773;43.300;0.394;2022-12-18T07:14:25;100268.06;;;4.06;71.31
17311;BME280;8773;43.300;0.394;2022-12-18T07:16:53;100267.84;;;4.10;71.06
17311;BME280;8773;43.300;0.394;2022-12-18T07:19:22;100280.75;;;4.27;71.17
17311;BME280;8773;43.300;0.394;2022-12-18T07:21:51;100286.03;;;4.39;70.48
17311;BME280;8773;43.300;0.394;2022-12-18T07:24:19;100286.66;;;4.43;70.47
17311;BME280;8773;43.300;0.394;2022-12-18T07:26:48;100282.94;;;4.46;70.55
17311;BME280;8773;43.300;0.394;2022-12-18T07:29:16;100288.22;;;4.58;69.88
17311;BME280;8773;43.300;0.394;2022-12-18T07:31:44;100274.56;;;4.52;69.91
17311;BME280;8773;43.300;0.394;2022-12-18T07:34:13;100284.94;;;4.55;69.86
17311;BME280;8773;43.300;0.394;2022-12-18T07:36:42;100268.31;;;4.53;69.84
17311;BME280;8773;43.300;0.394;2022-12-18T07:39:12;100276.91;;;4.44;69.90
17311;BME280;8773;43.300;0.394;2022-12-18T07:41:40;100278.41;;;4.35;69.80
17311;BME280;8773;43.300;0.394;2022-12-18T07:44:13;100272.34;;;4.46;69.64
17311;BME280;8773;43.300;0.394;2022-12-18T07:46:42;100272.03;;;4.63;70.05
17311;BME280;8773;43.300;0.394;2022-12-18T07:49:10;100266.56;;;4.77;69.53
17311;BME280;8773;43.300;0.394;2022-12-18T07:51:38;100278.13;;;4.76;69.13
17311;BME280;8773;43.300;0.394;2022-12-18T07:54:06;100277.88;;;4.79;69.39
17311;BME280;8773;43.300;0.394;2022-12-18T07:56:36;100275.84;;;4.95;68.43
17311;BME280;8773;43.300;0.394;2022-12-18T07:59:04;100278.66;;;5.05;68.21
17311;BME280;8773;43.300;0.394;2022-12-18T08:01:33;100280.63;;;4.90;68.80
17311;BME280;8773;43.300;0.394;2022-12-18T08:04:01;100283.16;;;4.92;68.43
17311;BME280;8773;43.300;0.394;2022-12-18T08:06:29;100287.69;;;5.02;68.17
17311;BME280;8773;43.300;0.394;2022-12-18T08:08:57;100282.97;;;5.19;68.56
17311;BME280;8773;43.300;0.394;2022-12-18T08:11:27;100285.72;;;5.41;68.32
17311;BME280;8773;43.300;0.394;2022-12-18T08:13:57;100299.75;;;5.65;67.99
17311;BME280;8773;43.300;0.394;2022-12-18T08:16:26;100296.72;;;5.83;67.13
17311;BME280;8773;43.300;0.394;2022-12-18T08:18:54;100287.16;;;6.04;66.30
17311;BME280;8773;43.300;0.394;2022-12-18T08:21:24;100302.09;;;6.16;66.19
17311;BME280;8773;43.300;0.394;2022-12-18T08:23:54;100303.41;;;6.11;66.02
17311;BME280;8773;43.300;0.394;2022-12-18T08:26:24;100309.63;;;6.33;65.14
17311;BME280;8773;43.300;0.394;2022-12-18T08:28:53;100311.06;;;6.37;64.69
17311;BME280;8773;43.300;0.394;2022-12-18T08:31:23;100319.41;;;6.44;64.67
17311;BME280;8773;43.300;0.394;2022-12-18T08:33:52;100294.75;;;6.53;64.31
17311;BME280;8773;43.300;0.394;2022-12-18T08:36:21;100304.19;;;6.68;65.10
17311;BME280;8773;43.300;0.394;2022-12-18T08:38:51;100308.03;;;6.76;63.70
17311;BME280;8773;43.300;0.394;2022-12-18T08:41:19;100298.88;;;6.80;64.32
17311;BME280;8773;43.300;0.394;2022-12-18T08:43:47;100298.88;;;6.80;63.43
17311;BME280;8773;43.300;0.394;2022-12-18T08:46:36;100304.06;;;6.70;64.27
17311;BME280;8773;43.300;0.394;2022-12-18T08:49:05;100317.34;;;6.48;64.19
17311;BME280;8773;43.300;0.394;2022-12-18T08:51:34;100318.91;;;6.39;63.93
17311;BME280;8773;43.300;0.394;2022-12-18T08:54:03;100311.78;;;6.28;64.36
17311;BME280;8773;43.300;0.394;2022-12-18T08:56:32;100309.16;;;6.39;64.04
17311;BME280;8773;43.300;0.394;2022-12-18T08:59:02;100324.56;;;6.34;63.94
17311;BME280;8773;43.300;0.394;2022-12-18T09:01:31;100317.81;;;6.53;63.82
17311;BME280;8773;43.300;0.394;2022-12-18T09:04:03;100312.50;;;6.53;64.05
17311;BME280;8773;43.300;0.394;2022-12-18T09:06:33;100315.16;;;6.64;64.07
17311;BME280;8773;43.300;0.394;2022-12-18T09:09:03;100310.59;;;6.66;63.80
17311;BME280;8773;43.300;0.394;2022-12-18T09:11:32;100311.66;;;6.74;63.43
17311;BME280;8773;43.300;0.394;2022-12-18T09:14:01;100297.41;;;6.87;63.39
17311;BME280;8773;43.300;0.394;2022-12-18T09:16:30;100304.84;;;7.15;62.50
17311;BME280;8773;43.300;0.394;2022-12-18T09:19:00;100312.78;;;7.26;62.65
17311;BME280;8773;43.300;0.394;2022-12-18T09:21:32;100311.75;;;7.38;62.69
17311;BME280;8773;43.300;0.394;2022-12-18T09:24:03;100312.56;;;7.50;62.10
17311;BME280;8773;43.300;0.394;2022-12-18T09:26:37;100316.78;;;7.53;62.02
17311;BME280;8773;43.300;0.394;2022-12-18T09:29:05;100320.63;;;7.71;62.08
17311;BME280;8773;43.300;0.394;2022-12-18T09:31:38;100318.75;;;7.83;61.67
17311;BME280;8773;43.300;0.394;2022-12-18T09:34:07;100316.03;;;7.94;61.46
17311;BME280;8773;43.300;0.394;2022-12-18T09:36:36;100316.19;;;8.13;60.79
17311;BME280;8773;43.300;0.394;2022-12-18T09:39:04;100316.09;;;8.24;60.27
17311;BME280;8773;43.300;0.394;2022-12-18T09:41:52;100318.16;;;8.42;60.14
17311;BME280;8773;43.300;0.394;2022-12-18T09:44:24;100323.13;;;8.56;60.30
17311;BME280;8773;43.300;0.394;2022-12-18T09:47:09;100311.81;;;8.73;59.21
17311;BME280;8773;43.300;0.394;2022-12-18T09:49:41;100316.41;;;8.92;59.27
17311;BME280;8773;43.300;0.394;2022-12-18T09:52:15;100311.91;;;8.92;58.88
17311;BME280;8773;43.300;0.394;2022-12-18T09:54:50;100299.00;;;8.97;59.08
17311;BME280;8773;43.300;0.394;2022-12-18T09:57:21;100300.69;;;8.98;58.87
17311;BME280;8773;43.300;0.394;2022-12-18T09:59:54;100305.94;;;9.10;58.70
17311;BME280;8773;43.300;0.394;2022-12-18T10:02:26;100296.50;;;9.05;58.96
17311;BME280;8773;43.300;0.394;2022-12-18T10:05:05;100293.19;;;9.23;58.94
17311;BME280;8773;43.300;0.394;2022-12-18T10:07:49;100297.28;;;9.36;59.04
17311;BME280;8773;43.300;0.394;2022-12-18T10:10:29;100304.88;;;9.60;58.55
17311;BME280;8773;43.300;0.394;2022-12-18T10:13:06;100289.97;;;9.77;56.99
17311;BME280;8773;43.300;0.394;2022-12-18T10:15:40;100290.69;;;9.79;57.27
17311;BME280;8773;43.300;0.394;2022-12-18T10:18:21;100280.44;;;9.84;56.99
17311;BME280;8773;43.300;0.394;2022-12-18T10:20:54;100285.19;;;9.90;57.37
17311;BME280;8773;43.300;0.394;2022-12-18T10:23:28;100278.69;;;10.02;58.09
17311;BME280;8773;43.300;0.394;2022-12-18T10:26:02;100277.41;;;10.16;57.41
17311;BME280;8773;43.300;0.394;2022-12-18T10:28:33;100298.91;;;10.24;56.73
17311;BME280;8773;43.300;0.394;2022-12-18T10:31:06;100275.69;;;10.25;57.13
17311;BME280;8773;43.300;0.394;2022-12-18T10:33:34;100279.75;;;10.38;57.33
17311;BME280;8773;43.300;0.394;2022-12-18T10:36:03;100285.72;;;10.50;57.11
17311;BME280;8773;43.300;0.394;2022-12-18T10:38:34;100283.59;;;10.54;55.56
17311;BME280;8773;43.300;0.394;2022-12-18T10:41:05;100280.34;;;10.69;56.34
17311;BME280;8773;43.300;0.394;2022-12-18T10:43:39;100274.25;;;10.77;55.93
17311;BME280;8773;43.300;0.394;2022-12-18T10:46:15;100271.81;;;10.84;56.00
17311;BME280;8773;43.300;0.394;2022-12-18T10:48:51;100271.22;;;10.90;55.34
17311;BME280;8773;43.300;0.394;2022-12-18T10:51:22;100274.00;;;10.98;55.68
17311;BME280;8773;43.300;0.394;2022-12-18T10:53:57;100282.09;;;11.06;55.52
17311;BME280;8773;43.300;0.394;2022-12-18T10:56:30;100271.91;;;11.19;55.03
17311;BME280;8773;43.300;0.394;2022-12-18T10:59:01;100269.97;;;11.29;54.43
17311;BME280;8773;43.300;0.394;2022-12-18T11:01:45;100258.50;;;11.37;53.55
17311;BME280;8773;43.300;0.394;2022-12-18T11:04:18;100252.31;;;11.36;54.13
17311;BME280;8773;43.300;0.394;2022-12-18T11:06:57;100260.97;;;11.48;53.00
17311;BME280;8773;43.300;0.394;2022-12-18T11:09:29;100247.03;;;11.62;53.02
17311;BME280;8773;43.300;0.394;2022-12-18T11:11:59;100243.25;;;11.73;52.98
17311;BME280;8773;43.300;0.394;2022-12-18T11:14:30;100245.16;;;11.81;52.10
17311;BME280;8773;43.300;0.394;2022-12-18T11:17:00;100241.63;;;11.80;51.67
17311;BME280;8773;43.300;0.394;2022-12-18T11:19:53;100209.38;;;11.82;50.39
17311;BME280;8773;43.300;0.394;2022-12-18T11:22:25;100239.03;;;12.14;51.15
17311;BME280;8773;43.300;0.394;2022-12-18T11:24:58;100247.81;;;12.24;49.99
17311;BME280;8773;43.300;0.394;2022-12-18T11:27:48;100236.41;;;12.22;50.24
17311;BME280;8773;43.300;0.394;2022-12-18T11:30:22;100232.91;;;12.22;49.78
17311;BME280;8773;43.300;0.394;2022-12-18T11:32:54;100231.75;;;12.24;49.70
17311;BME280;8773;43.300;0.394;2022-12-18T11:35:34;100228.78;;;12.35;50.12
17311;BME280;8773;43.300;0.394;2022-12-18T11:38:10;100222.84;;;12.50;49.61
17311;BME280;8773;43.300;0.394;2022-12-18T11:40:44;100223.88;;;12.65;49.18
17311;BME280;8773;43.300;0.394;2022-12-18T11:43:17;100226.75;;;12.71;49.19
17311;BME280;8773;43.300;0.394;2022-12-18T11:45:53;100221.56;;;12.70;48.88
17311;BME280;8773;43.300;0.394;2022-12-18T11:48:23;100212.25;;;12.90;49.12
17311;BME280;8773;43.300;0.394;2022-12-18T11:50:54;100211.41;;;12.90;49.07
17311;BME280;8773;43.300;0.394;2022-12-18T11:53:24;100211.25;;;12.91;49.22
17311;BME280;8773;43.300;0.394;2022-12-18T11:56:02;100199.03;;;12.97;48.89
17311;BME280;8773;43.300;0.394;2022-12-18T11:58:47;100201.88;;;13.03;48.35
17311;BME280;8773;43.300;0.394;2022-12-18T12:01:28;100193.00;;;13.11;48.29
17311;BME280;8773;43.300;0.394;2022-12-18T12:07:17;100186.50;;;13.30;48.26
17311;BME280;8773;43.300;0.394;2022-12-18T12:09:56;100178.59;;;13.45;47.33
17311;BME280;8773;43.300;0.394;2022-12-18T12:12:37;100182.78;;;13.47;46.80
17311;BME280;8773;43.300;0.394;2022-12-18T12:15:22;100170.72;;;13.51;46.15
17311;BME280;8773;43.300;0.394;2022-12-18T12:17:57;100176.06;;;13.59;44.63
17311;BME280;8773;43.300;0.394;2022-12-18T12:20:44;100173.56;;;13.66;42.89
17311;BME280;8773;43.300;0.394;2022-12-18T12:23:23;100158.59;;;13.72;43.10
17311;BME280;8773;43.300;0.394;2022-12-18T12:25:57;100170.53;;;13.85;43.50
17311;BME280;8773;43.300;0.394;2022-12-18T12:28:39;100168.97;;;13.91;43.14
17311;BME280;8773;43.300;0.394;2022-12-18T12:31:15;100160.59;;;13.86;43.14
17311;BME280;8773;43.300;0.394;2022-12-18T12:33:52;100159.56;;;13.95;43.80
17311;BME280;8773;43.300;0.394;2022-12-18T12:36:30;100158.88;;;14.01;43.80
17311;BME280;8773;43.300;0.394;2022-12-18T12:39:06;100159.72;;;14.10;43.32
17311;BME280;8773;43.300;0.394;2022-12-18T12:41:37;100166.25;;;14.15;42.83
17311;BME280;8773;43.300;0.394;2022-12-18T12:44:28;100158.13;;;14.31;42.68
17311;BME280;8773;43.300;0.394;2022-12-18T12:47:04;100166.81;;;14.42;40.16
17311;BME280;8773;43.300;0.394;2022-12-18T12:49:35;100172.41;;;14.32;35.69
17311;BME280;8773;43.300;0.394;2022-12-18T12:52:12;100157.47;;;14.29;35.10
17311;BME280;8773;43.300;0.394;2022-12-18T12:54:42;100147.91;;;14.27;34.86
17311;BME280;8773;43.300;0.394;2022-12-18T12:57:15;100144.59;;;14.09;33.85
17311;BME280;8773;43.300;0.394;2022-12-18T12:59:52;100158.59;;;14.35;34.62
17311;BME280;8773;43.300;0.394;2022-12-18T13:02:28;100153.69;;;14.47;33.45
17311;BME280;8773;43.300;0.394;2022-12-18T13:05:02;100143.13;;;14.37;34.74
17311;BME280;8773;43.300;0.394;2022-12-18T13:07:36;100142.88;;;14.24;32.78
17311;BME280;8773;43.300;0.394;2022-12-18T13:10:24;100142.88;;;14.55;34.58
17311;BME280;8773;43.300;0.394;2022-12-18T13:12:54;100124.31;;;14.68;33.56
17311;BME280;8773;43.300;0.394;2022-12-18T13:15:38;100130.97;;;14.80;34.46
17311;BME280;8773;43.300;0.394;2022-12-18T13:18:24;100125.03;;;14.85;33.89
17311;BME280;8773;43.300;0.394;2022-12-18T13:21:03;100132.28;;;14.84;34.15
17311;BME280;8773;43.300;0.394;2022-12-18T13:23:36;100118.16;;;14.82;34.58
17311;BME280;8773;43.300;0.394;2022-12-18T13:26:29;100126.22;;;14.82;35.25
17311;BME280;8773;43.300;0.394;2022-12-18T13:28:59;100110.78;;;14.76;35.15
17311;BME280;8773;43.300;0.394;2022-12-18T13:34:42;100102.63;;;14.69;34.77
17311;BME280;8773;43.300;0.394;2022-12-18T13:37:43;100115.78;;;14.87;36.37
17311;BME280;8773;43.300;0.394;2022-12-18T13:40:53;100070.72;;;14.81;36.00